Time;durP1;ratioP1;P1;durP2;ratioP2;P2;SDS_P1;SDS_P2;PMS_P1;PMS_P2;Temp;Humidity;BMP_temperature;BMP_pressure;BME280_temperature;BME280_humidity;BME280_pressure;Samples;Min_cycle;Max_cycle;Signal;HPM_P1;HPM_P2
2023/11/12 00:01:46;;;;;;;71.88;52.97;;;5.00;99.90;;;;;;5039622;28;20161;-81
2023/11/12 00:04:12;;;;;;;62.97;45.25;;;5.00;99.90;;;;;;5038694;28;20205;-81
2023/11/12 00:06:42;;;;;;;64.70;42.90;;;4.90;99.90;;;;;;5038709;28;20158;-81
2023/11/12 00:09:09;;;;;;;68.97;44.70;;;4.90;99.90;;;;;;5038569;28;20455;-81
2023/11/12 00:11:36;;;;;;;60.92;35.78;;;4.80;99.90;;;;;;5021150;28;20177;-81
2023/11/12 00:14:02;;;;;;;65.32;45.55;;;4.80;99.90;;;;;;5038564;28;20189;-81
2023/11/12 00:16:28;;;;;;;63.20;39.17;;;4.70;99.90;;;;;;5039625;28;20531;-81
2023/11/12 00:18:57;;;;;;;60.90;33.47;;;4.70;99.90;;;;;;5020845;28;20170;-81
2023/11/12 00:21:24;;;;;;;60.72;34.97;;;4.70;99.90;;;;;;5039456;28;20169;-81
2023/11/12 00:23:52;;;;;;;60.08;36.53;;;4.70;99.90;;;;;;5043051;28;20571;-81
2023/11/12 00:26:18;;;;;;;63.42;40.67;;;4.60;99.90;;;;;;5042616;28;20509;-81
2023/11/12 00:28:45;;;;;;;56.27;31.13;;;4.60;99.90;;;;;;5043148;28;20162;-81
2023/11/12 00:31:11;;;;;;;57.80;30.10;;;4.50;99.90;;;;;;5024681;28;20190;-81
2023/11/12 00:33:37;;;;;;;59.53;35.97;;;4.50;99.90;;;;;;5024771;28;20193;-81
2023/11/12 00:36:04;;;;;;;61.83;35.17;;;4.40;99.90;;;;;;5041555;28;20196;-81
2023/11/12 00:38:30;;;;;;;66.45;45.67;;;4.40;99.90;;;;;;5041372;28;20166;-81
2023/11/12 00:40:56;;;;;;;57.97;32.77;;;4.30;99.90;;;;;;5040803;28;20513;-81
2023/11/12 00:43:28;;;;;;;55.05;22.88;;;4.30;99.90;;;;;;5023179;28;20205;-81
2023/11/12 00:45:58;;;;;;;54.72;26.70;;;4.30;99.90;;;;;;5040915;28;20204;-81
2023/11/12 00:48:24;;;;;;;60.88;33.38;;;4.20;99.90;;;;;;5040684;28;20166;-81
2023/11/12 00:50:49;;;;;;;54.97;25.73;;;4.20;99.90;;;;;;5040386;28;20177;-81
2023/11/12 00:53:15;;;;;;;55.10;28.17;;;4.20;99.90;;;;;;5040224;28;20516;-81
2023/11/12 00:55:41;;;;;;;58.80;33.37;;;4.10;99.90;;;;;;5040181;28;20165;-81
2023/11/12 00:58:06;;;;;;;55.63;29.37;;;4.10;99.90;;;;;;5040252;28;20166;-81
2023/11/12 01:00:32;;;;;;;53.77;26.20;;;4.10;99.90;;;;;;5022607;28;20188;-81
2023/11/12 01:02:58;;;;;;;52.03;23.57;;;4.00;99.90;;;;;;5040210;28;20185;-81
2023/11/12 01:05:23;;;;;;;57.70;27.93;;;3.90;99.90;;;;;;5040327;28;20185;-81
2023/11/12 01:07:49;;;;;;;55.37;27.13;;;4.00;99.90;;;;;;5040455;28;20166;-81
2023/11/12 01:10:15;;;;;;;54.07;25.90;;;3.90;99.90;;;;;;5039778;28;20166;-81
2023/11/12 01:12:41;;;;;;;58.37;29.40;;;3.90;99.90;;;;;;5040123;28;20230;-81
2023/11/12 01:15:07;;;;;;;55.47;29.15;;;3.90;99.90;;;;;;5040216;28;20181;-81
2023/11/12 01:17:33;;;;;;;55.90;28.10;;;4.00;99.90;;;;;;5040432;28;20168;-81
2023/11/12 01:20:00;;;;;;;56.40;27.33;;;3.90;99.90;;;;;;5022982;28;20409;-81
2023/11/12 01:22:29;;;;;;;56.60;24.98;;;4.00;99.90;;;;;;5040988;28;20447;-81
2023/11/12 01:24:54;;;;;;;52.95;23.90;;;4.00;99.90;;;;;;5040727;28;20194;-81
2023/11/12 01:27:20;;;;;;;57.00;29.13;;;4.10;99.90;;;;;;5040597;28;20162;-81
2023/11/12 01:29:46;;;;;;;54.67;23.30;;;4.10;99.90;;;;;;5040978;28;20165;-81
2023/11/12 01:32:11;;;;;;;56.03;25.27;;;4.10;99.90;;;;;;5040828;28;20230;-81
2023/11/12 01:34:37;;;;;;;58.97;28.30;;;4.20;99.90;;;;;;5039843;28;20181;-81
2023/11/12 01:37:04;;;;;;;57.15;31.00;;;4.20;99.90;;;;;;5040712;28;20170;-81
2023/11/12 01:39:30;;;;;;;56.67;24.77;;;4.20;99.90;;;;;;5040753;28;20165;-81
2023/11/12 01:41:56;;;;;;;55.28;26.15;;;4.20;99.90;;;;;;5040530;28;20166;-81
2023/11/12 01:44:21;;;;;;;58.57;32.40;;;4.10;99.90;;;;;;5023261;28;20217;-81
2023/11/12 01:46:48;;;;;;;56.47;26.20;;;4.10;99.90;;;;;;5041584;28;20162;-81
2023/11/12 01:49:14;;;;;;;54.63;27.38;;;4.10;99.90;;;;;;5040861;28;20166;-81
2023/11/12 01:51:40;;;;;;;55.03;23.77;;;4.00;99.90;;;;;;5040905;28;20166;-81
2023/11/12 01:54:07;;;;;;;55.33;23.15;;;4.00;99.90;;;;;;5040978;28;20193;-81
2023/11/12 01:56:34;;;;;;;55.67;25.85;;;3.90;99.90;;;;;;5040579;28;20197;-81
2023/11/12 01:59:01;;;;;;;55.53;22.77;;;3.90;99.90;;;;;;5041071;28;20170;-81
2023/11/12 02:01:27;;;;;;;56.95;28.55;;;3.90;99.90;;;;;;5023096;28;20181;-81
2023/11/12 02:03:54;;;;;;;53.73;23.67;;;3.80;99.90;;;;;;5022149;28;20213;-81
2023/11/12 02:06:20;;;;;;;58.28;29.73;;;3.80;99.90;;;;;;5022960;28;20266;-81
2023/11/12 02:08:46;;;;;;;52.80;20.07;;;3.70;99.90;;;;;;5040603;28;20196;-81
2023/11/12 02:11:13;;;;;;;55.50;22.67;;;3.80;99.90;;;;;;5040183;28;20895;-81
2023/11/12 02:13:42;;;;;;;54.20;24.45;;;3.70;99.90;;;;;;5039827;28;21005;-81
2023/11/12 02:16:09;;;;;;;54.10;22.58;;;3.70;99.90;;;;;;5039955;28;20224;-81
2023/11/12 02:18:35;;;;;;;55.60;23.77;;;3.60;99.90;;;;;;5039911;28;20177;-81
2023/11/12 02:21:02;;;;;;;53.30;18.27;;;3.60;99.90;;;;;;5039681;28;20161;-81
2023/11/12 02:23:29;;;;;;;52.08;21.95;;;3.60;99.90;;;;;;5039064;28;20540;-81
2023/11/12 02:25:57;;;;;;;51.67;19.88;;;3.50;99.90;;;;;;5039409;28;20181;-81
2023/11/12 02:28:23;;;;;;;51.78;19.73;;;3.60;99.90;;;;;;5039537;28;20173;-81
2023/11/12 02:30:55;;;;;;;53.73;21.30;;;3.60;99.90;;;;;;5039695;28;20252;-81
2023/11/12 02:33:27;;;;;;;52.90;19.55;;;3.70;99.90;;;;;;5038908;28;20194;-81
2023/11/12 02:35:55;;;;;;;53.45;19.63;;;3.70;99.90;;;;;;5039232;28;20168;-81
2023/11/12 02:38:21;;;;;;;51.10;20.15;;;3.70;99.90;;;;;;5040099;28;20526;-81
2023/11/12 02:40:47;;;;;;;53.58;21.20;;;3.70;99.90;;;;;;5039000;28;20658;-81
2023/11/12 02:43:16;;;;;;;51.87;21.20;;;3.70;99.90;;;;;;5020758;28;20198;-81
2023/11/12 02:45:42;;;;;;;51.72;19.00;;;3.60;99.90;;;;;;5039051;28;20722;-81
2023/11/12 02:48:07;;;;;;;51.27;19.67;;;3.60;99.90;;;;;;5039519;28;20257;-81
2023/11/12 02:50:35;;;;;;;56.57;20.47;;;3.60;99.90;;;;;;5039247;28;20249;-81
2023/11/12 02:53:03;;;;;;;52.72;17.63;;;3.60;99.90;;;;;;5039584;28;20220;-81
2023/11/12 02:55:32;;;;;;;58.60;20.45;;;3.60;99.90;;;;;;5022338;28;20183;-81
2023/11/12 02:57:59;;;;;;;55.33;23.65;;;3.80;99.90;;;;;;5039555;28;20638;-81
2023/11/12 03:00:29;;;;;;;66.43;42.38;;;4.10;99.90;;;;;;5040301;28;20187;-80
2023/11/12 03:02:57;;;;;;;61.58;42.17;;;4.40;99.90;;;;;;5039404;28;20193;-81
2023/11/12 03:05:24;;;;;;;68.50;48.42;;;4.70;99.90;;;;;;5039437;28;20181;-81
2023/11/12 03:07:50;;;;;;;75.30;62.90;;;4.80;99.90;;;;;;5038987;28;20165;-81
2023/11/12 03:10:17;;;;;;;69.32;56.95;;;4.90;99.90;;;;;;5039849;28;20300;-81
2023/11/12 03:12:43;;;;;;;86.53;77.22;;;5.00;99.90;;;;;;5039694;28;20168;-81
2023/11/12 03:15:11;;;;;;;81.45;72.10;;;5.10;99.90;;;;;;5040777;28;20228;-81
2023/11/12 03:17:37;;;;;;;66.80;52.03;;;5.10;99.90;;;;;;5021997;28;20166;-81
2023/11/12 03:20:04;;;;;;;69.05;57.92;;;5.20;99.90;;;;;;5039695;28;20562;-81
2023/11/12 03:22:33;;;;;;;87.45;77.65;;;5.20;99.90;;;;;;5020989;28;20232;-81
2023/11/12 03:25:06;;;;;;;85.38;76.50;;;5.20;99.90;;;;;;5039059;28;20216;-81
2023/11/12 03:27:33;;;;;;;83.47;74.45;;;5.30;99.90;;;;;;5039535;28;20158;-81
2023/11/12 03:29:59;;;;;;;75.00;60.70;;;5.30;99.90;;;;;;5021970;28;20170;-81
2023/11/12 03:32:25;;;;;;;84.30;75.38;;;5.30;99.90;;;;;;5022248;28;20174;-81
2023/11/12 03:34:53;;;;;;;70.55;56.13;;;5.30;99.90;;;;;;5022127;28;20240;-81
2023/11/12 03:37:22;;;;;;;77.07;65.88;;;5.30;99.90;;;;;;5039780;28;20162;-81
2023/11/12 03:39:49;;;;;;;85.10;75.43;;;5.30;99.90;;;;;;5039673;28;20227;-81
2023/11/12 03:42:16;;;;;;;72.30;60.08;;;5.30;99.90;;;;;;5039285;28;20631;-81
2023/11/12 03:44:43;;;;;;;69.57;59.83;;;5.20;99.90;;;;;;5039664;28;20613;-81
2023/11/12 03:47:09;;;;;;;96.32;87.15;;;5.30;99.90;;;;;;5021492;28;20252;-81
2023/11/12 03:49:36;;;;;;;71.90;63.85;;;5.20;99.90;;;;;;5022058;28;20223;-81
2023/11/12 03:52:01;;;;;;;86.93;78.47;;;5.20;99.90;;;;;;5021565;28;20170;-81
2023/11/12 03:54:27;;;;;;;92.77;83.50;;;5.20;99.90;;;;;;5039234;28;20722;-81
2023/11/12 03:56:53;;;;;;;81.70;72.57;;;5.30;99.90;;;;;;5038254;28;20181;-81
2023/11/12 03:59:19;;;;;;;79.68;71.40;;;5.30;99.90;;;;;;5039052;28;20165;-81
2023/11/12 04:01:44;;;;;;;94.83;85.47;;;5.30;99.90;;;;;;5020494;28;20174;-81
2023/11/12 04:04:10;;;;;;;66.90;53.67;;;5.40;99.90;;;;;;5038115;28;20227;-81
2023/11/12 04:06:36;;;;;;;77.47;65.80;;;5.40;99.90;;;;;;5038941;28;20508;-81
2023/11/12 04:09:02;;;;;;;81.47;72.03;;;5.50;99.90;;;;;;5039637;28;20211;-81
2023/11/12 04:11:28;;;;;;;74.05;64.00;;;5.50;99.90;;;;;;5038653;28;20169;-81
2023/11/12 04:13:53;;;;;;;110.33;100.40;;;5.60;99.90;;;;;;5038859;28;20201;-81
2023/11/12 04:16:19;;;;;;;68.57;58.77;;;5.60;99.90;;;;;;5021446;28;20408;-81
2023/11/12 04:18:47;;;;;;;65.90;50.47;;;5.60;99.90;;;;;;5038431;28;20162;-81
2023/11/12 04:21:13;;;;;;;65.32;49.83;;;5.70;99.90;;;;;;5039018;28;20538;-81
2023/11/12 04:23:43;;;;;;;68.63;47.08;;;5.70;99.90;;;;;;5038585;28;20197;-81
2023/11/12 04:26:10;;;;;;;66.00;49.40;;;5.60;99.90;;;;;;5038430;28;20551;-81
2023/11/12 04:28:36;;;;;;;65.95;50.47;;;5.60;99.90;;;;;;5021185;28;20220;-81
2023/11/12 04:31:02;;;;;;;61.83;40.30;;;5.50;99.90;;;;;;5037810;28;20249;-81
2023/11/12 04:33:29;;;;;;;61.00;41.20;;;5.40;99.90;;;;;;5019954;28;20678;-81
2023/11/12 04:35:55;;;;;;;61.30;41.05;;;5.30;99.90;;;;;;5039040;28;20257;-81
2023/11/12 04:38:20;;;;;;;61.73;36.90;;;5.30;99.90;;;;;;5038780;28;20202;-81
2023/11/12 04:40:49;;;;;;;56.73;32.30;;;5.30;99.90;;;;;;5037942;28;20397;-81
2023/11/12 04:43:18;;;;;;;55.45;28.55;;;5.20;99.90;;;;;;5020345;28;20202;-81
2023/11/12 04:45:44;;;;;;;56.75;33.58;;;5.10;99.90;;;;;;5038421;28;20162;-81
2023/11/12 04:48:11;;;;;;;54.47;26.03;;;5.00;99.90;;;;;;5038371;28;20162;-81
2023/11/12 04:50:38;;;;;;;55.25;30.45;;;5.00;99.90;;;;;;5038835;28;20404;-81
2023/11/12 04:53:04;;;;;;;56.72;29.60;;;4.90;99.90;;;;;;5038644;28;20272;-81
2023/11/12 04:55:30;;;;;;;55.47;27.90;;;4.80;99.90;;;;;;5038720;28;20647;-81
2023/11/12 04:57:56;;;;;;;56.93;29.23;;;4.80;99.90;;;;;;5038974;28;20201;-81
2023/11/12 05:00:22;;;;;;;54.60;27.60;;;4.70;99.90;;;;;;5038104;28;20495;-81
2023/11/12 05:02:48;;;;;;;58.00;33.22;;;4.60;99.90;;;;;;5020358;28;20277;-81
2023/11/12 05:05:14;;;;;;;56.20;30.97;;;4.60;99.90;;;;;;5037969;28;20217;-81
2023/11/12 05:07:40;;;;;;;57.30;28.92;;;4.60;99.90;;;;;;5038492;28;20397;-81
2023/11/12 05:10:08;;;;;;;70.97;44.20;;;4.60;99.90;;;;;;5023444;28;20172;-81
2023/11/12 05:12:34;;;;;;;59.13;32.80;;;4.60;99.90;;;;;;5041754;28;20196;-81
2023/11/12 05:15:00;;;;;;;57.53;29.45;;;4.60;99.90;;;;;;5041411;28;20543;-81
2023/11/12 05:17:27;;;;;;;59.30;32.65;;;4.60;99.90;;;;;;5041341;28;20162;-81
2023/11/12 05:19:52;;;;;;;63.75;39.25;;;4.70;99.90;;;;;;5041922;28;20165;-81
2023/11/12 05:22:19;;;;;;;55.60;29.60;;;4.60;99.90;;;;;;5041723;28;20193;-81
2023/11/12 05:24:45;;;;;;;62.95;36.72;;;4.50;99.90;;;;;;5041171;28;20444;-81
2023/11/12 05:27:10;;;;;;;56.40;30.30;;;4.50;99.90;;;;;;5040809;28;20165;-81
2023/11/12 05:29:36;;;;;;;63.60;39.40;;;4.40;99.90;;;;;;5040751;28;20158;-81
2023/11/12 05:32:02;;;;;;;55.93;31.13;;;4.40;99.90;;;;;;5040809;28;20166;-81
2023/11/12 05:34:27;;;;;;;54.23;26.00;;;4.40;99.90;;;;;;5041368;28;20546;-81
2023/11/12 05:36:53;;;;;;;61.60;35.00;;;4.40;99.90;;;;;;5023147;28;20491;-81
2023/11/12 05:39:19;;;;;;;63.03;36.30;;;4.30;99.90;;;;;;5041239;28;20166;-81
2023/11/12 05:41:45;;;;;;;53.72;26.70;;;4.20;99.90;;;;;;5040897;28;20827;-81
2023/11/12 05:44:11;;;;;;;53.83;25.20;;;4.20;99.90;;;;;;5040707;28;20212;-81
2023/11/12 05:46:36;;;;;;;54.30;23.93;;;4.10;99.90;;;;;;5041504;28;20249;-81
2023/11/12 05:49:02;;;;;;;54.03;27.87;;;4.00;99.90;;;;;;5040255;28;20170;-81
2023/11/12 05:51:28;;;;;;;52.93;21.67;;;4.00;99.90;;;;;;5040848;28;20623;-81
2023/11/12 05:53:53;;;;;;;50.47;20.70;;;3.90;99.90;;;;;;5040853;28;20190;-81
2023/11/12 05:56:19;;;;;;;52.07;21.10;;;3.80;99.90;;;;;;5041014;28;20166;-81
2023/11/12 05:58:45;;;;;;;58.40;19.47;;;3.80;99.90;;;;;;5040833;28;20635;-81
2023/11/12 06:01:12;;;;;;;52.37;20.40;;;3.90;99.90;;;;;;5023170;28;20412;-81
2023/11/12 06:03:37;;;;;;;54.05;25.02;;;3.80;99.90;;;;;;5041026;28;20209;-81
2023/11/12 06:06:04;;;;;;;51.33;20.23;;;3.80;99.90;;;;;;5041515;28;20165;-81
2023/11/12 06:08:29;;;;;;;51.58;19.95;;;3.80;99.90;;;;;;5023428;28;20401;-81
2023/11/12 06:10:56;;;;;;;53.27;24.23;;;3.70;99.90;;;;;;5041571;28;20528;-81
2023/11/12 06:13:22;;;;;;;50.90;19.98;;;3.70;99.90;;;;;;5041397;28;20563;-81
2023/11/12 06:15:47;;;;;;;49.93;19.43;;;3.60;99.90;;;;;;5040872;28;20170;-81
2023/11/12 06:18:13;;;;;;;49.53;18.47;;;3.60;99.90;;;;;;5040637;28;20436;-81
2023/11/12 06:20:39;;;;;;;50.10;19.57;;;3.60;99.90;;;;;;5040744;28;20196;-81
2023/11/12 06:23:06;;;;;;;48.73;16.43;;;3.60;99.90;;;;;;5040821;28;20225;-81
2023/11/12 06:25:32;;;;;;;50.95;16.77;;;3.50;99.90;;;;;;5041613;28;20165;-81
2023/11/12 06:27:58;;;;;;;48.90;15.10;;;3.50;99.90;;;;;;5041372;28;20162;-81
2023/11/12 06:30:23;;;;;;;50.83;14.33;;;3.50;99.90;;;;;;5040909;28;20426;-81
2023/11/12 06:32:50;;;;;;;50.70;17.97;;;3.50;99.90;;;;;;5041570;28;20177;-81
2023/11/12 06:35:16;;;;;;;52.25;16.88;;;3.40;99.90;;;;;;5040594;28;20165;-81
2023/11/12 06:37:41;;;;;;;47.60;13.73;;;3.40;99.90;;;;;;5041342;28;20167;-81
2023/11/12 06:40:08;;;;;;;50.77;19.13;;;3.40;99.90;;;;;;5040704;28;20639;-81
2023/11/12 06:42:33;;;;;;;52.67;17.85;;;3.40;99.90;;;;;;5040530;28;20625;-81
2023/11/12 06:44:59;;;;;;;48.77;13.80;;;3.40;99.90;;;;;;5041305;28;20220;-81
2023/11/12 06:47:25;;;;;;;47.93;13.87;;;3.40;99.90;;;;;;5039494;28;20245;-81
2023/11/12 06:49:50;;;;;;;46.63;12.33;;;3.40;99.90;;;;;;5040224;28;20174;-81
2023/11/12 06:52:17;;;;;;;48.73;16.40;;;3.40;99.90;;;;;;5021372;28;20199;-81
2023/11/12 06:54:43;;;;;;;50.60;18.08;;;3.40;99.90;;;;;;5039447;28;20188;-81
2023/11/12 06:57:12;;;;;;;48.25;15.40;;;3.30;99.90;;;;;;5021984;28;20170;-81
2023/11/12 06:59:37;;;;;;;49.28;15.30;;;3.40;99.90;;;;;;5039379;28;20166;-81
2023/11/12 07:02:03;;;;;;;50.07;16.60;;;3.30;99.90;;;;;;5022168;28;20169;-81
2023/11/12 07:04:30;;;;;;;49.27;15.77;;;3.30;99.90;;;;;;5040339;28;20682;-81
2023/11/12 07:06:55;;;;;;;49.00;12.57;;;3.30;99.90;;;;;;5039771;28;20157;-81
2023/11/12 07:09:21;;;;;;;49.57;14.63;;;3.30;99.90;;;;;;5039781;28;20180;-81
2023/11/12 07:11:47;;;;;;;48.50;14.17;;;3.40;99.90;;;;;;5022084;28;20177;-81
2023/11/12 07:14:13;;;;;;;48.37;14.83;;;3.40;99.90;;;;;;5021759;28;20196;-81
2023/11/12 07:16:38;;;;;;;48.33;16.27;;;3.40;99.90;;;;;;5040022;28;20173;-81
2023/11/12 07:19:04;;;;;;;51.50;16.53;;;3.40;99.90;;;;;;5038965;28;20505;-81
2023/11/12 07:21:31;;;;;;;50.50;18.53;;;3.40;99.90;;;;;;5039345;28;20190;-81
2023/11/12 07:23:57;;;;;;;52.15;17.13;;;3.50;99.90;;;;;;5040168;28;20219;-81
2023/11/12 07:26:27;;;;;;;49.33;17.35;;;3.50;99.90;;;;;;5039490;28;20168;-81
2023/11/12 07:28:53;;;;;;;49.80;16.52;;;3.50;99.90;;;;;;5021977;28;20520;-81
2023/11/12 07:31:23;;;;;;;50.58;18.80;;;3.50;99.90;;;;;;5039470;28;20161;-81
2023/11/12 07:33:48;;;;;;;50.92;21.52;;;3.50;99.90;;;;;;5040683;28;20193;-81
2023/11/12 07:36:15;;;;;;;49.83;18.47;;;3.50;99.90;;;;;;5040682;28;20166;-81
2023/11/12 07:38:41;;;;;;;51.33;19.42;;;3.60;99.90;;;;;;5021837;28;20408;-81
2023/11/12 07:41:07;;;;;;;55.90;25.48;;;3.60;99.90;;;;;;5039853;28;20169;-81
2023/11/12 07:43:36;;;;;;;54.58;23.35;;;3.60;99.90;;;;;;5039565;28;20197;-81
2023/11/12 07:46:02;;;;;;;57.10;20.65;;;3.70;99.90;;;;;;5040280;28;20197;-81
2023/11/12 07:48:29;;;;;;;56.47;23.88;;;3.70;99.90;;;;;;5040400;28;20644;-81
2023/11/12 07:50:57;;;;;;;59.28;26.73;;;3.80;99.90;;;;;;5040156;28;20189;-81
2023/11/12 07:53:26;;;;;;;61.08;21.17;;;3.90;99.90;;;;;;5040579;28;20190;-81
2023/11/12 07:55:52;;;;;;;55.72;23.70;;;3.90;99.90;;;;;;5021630;28;20665;-81
2023/11/12 07:58:19;;;;;;;62.97;36.30;;;4.00;99.90;;;;;;5039997;28;20194;-81
2023/11/12 08:00:44;;;;;;;58.45;29.60;;;4.00;99.90;;;;;;5041420;28;20170;-81
2023/11/12 08:03:10;;;;;;;59.77;25.17;;;4.10;99.90;;;;;;5040131;28;20209;-81
2023/11/12 08:05:36;;;;;;;61.23;32.63;;;4.20;99.90;;;;;;5022928;28;20180;-81
2023/11/12 08:08:02;;;;;;;58.50;32.47;;;4.20;99.90;;;;;;5040633;28;20432;-81
2023/11/12 08:10:28;;;;;;;61.08;30.48;;;4.30;99.90;;;;;;5022618;28;20166;-81
2023/11/12 08:12:58;;;;;;;66.97;42.10;;;4.40;99.90;;;;;;5040144;28;20207;-81
2023/11/12 08:15:24;;;;;;;58.65;31.52;;;4.40;99.90;;;;;;5041066;28;20192;-81
2023/11/12 08:17:49;;;;;;;60.33;37.72;;;4.40;99.90;;;;;;5038307;28;20216;-81
2023/11/12 08:20:15;;;;;;;62.17;35.20;;;4.50;99.90;;;;;;5021435;28;20260;-81
2023/11/12 08:22:41;;;;;;;69.07;47.40;;;4.50;99.90;;;;;;5022387;28;20197;-81
2023/11/12 08:25:09;;;;;;;62.70;40.63;;;4.50;99.90;;;;;;5039947;28;20158;-81
2023/11/12 08:27:35;;;;;;;60.08;35.65;;;4.60;99.90;;;;;;5040042;28;20170;-81
2023/11/12 08:30:01;;;;;;;60.20;37.30;;;4.60;99.90;;;;;;5040055;28;20224;-81
2023/11/12 08:32:26;;;;;;;65.80;47.23;;;4.70;99.90;;;;;;5040132;28;20224;-81
2023/11/12 08:34:52;;;;;;;70.97;49.93;;;4.70;99.90;;;;;;5039360;28;20674;-81
2023/11/12 08:37:18;;;;;;;68.87;52.27;;;4.70;99.90;;;;;;5038024;28;20165;-81
2023/11/12 08:39:43;;;;;;;64.50;45.00;;;4.80;99.90;;;;;;5038492;28;20158;-81
2023/11/12 08:42:10;;;;;;;70.93;54.50;;;4.90;99.90;;;;;;5040533;28;20181;-81
2023/11/12 08:44:36;;;;;;;68.18;51.58;;;4.90;99.90;;;;;;5042421;28;20197;-81
2023/11/12 08:47:02;;;;;;;70.67;54.73;;;5.00;99.90;;;;;;5023062;28;20256;-80
2023/11/12 08:49:30;;;;;;;71.22;54.30;;;5.00;99.90;;;;;;5022912;28;20407;-80
2023/11/12 08:52:05;;;;;;;85.72;76.75;;;5.10;99.90;;;;;;5042078;28;20233;-81
2023/11/12 08:54:31;;;;;;;79.70;68.65;;;5.20;99.90;;;;;;5024531;28;20239;-81
2023/11/12 08:56:57;;;;;;;76.18;67.25;;;5.20;99.90;;;;;;5042469;28;20189;-81
2023/11/12 08:59:23;;;;;;;92.30;82.97;;;5.30;99.90;;;;;;5042348;28;20169;-81
2023/11/12 09:01:49;;;;;;;79.77;69.03;;;5.30;99.90;;;;;;5042493;28;20170;-80
2023/11/12 09:04:15;;;;;;;86.80;76.70;;;5.30;99.90;;;;;;5042288;28;20197;-81
2023/11/12 09:06:41;;;;;;;82.07;73.30;;;5.40;99.90;;;;;;5041747;28;20165;-81
2023/11/12 09:09:08;;;;;;;91.13;81.27;;;5.40;99.90;;;;;;5042248;28;20405;-80
2023/11/12 09:11:34;;;;;;;97.80;87.78;;;5.40;99.90;;;;;;5044012;28;20158;-81
2023/11/12 09:14:03;;;;;;;86.97;77.77;;;5.50;99.90;;;;;;5024246;28;20663;-81
2023/11/12 09:16:30;;;;;;;85.80;76.95;;;5.60;99.90;;;;;;5024311;28;20173;-81
2023/11/12 09:19:05;;;;;;;107.30;97.10;;;5.70;99.90;;;;;;5042149;28;20177;-81
2023/11/12 09:21:31;;;;;;;139.48;127.50;;;5.70;99.90;;;;;;5042140;28;20165;-82
2023/11/12 09:23:57;;;;;;;98.50;88.97;;;5.80;99.90;;;;;;5042325;28;20200;-81
2023/11/12 09:26:23;;;;;;;117.72;107.00;;;5.90;99.90;;;;;;5024554;28;20643;-81
2023/11/12 09:28:52;;;;;;;110.53;99.80;;;5.90;99.90;;;;;;5042767;28;20574;-81
2023/11/12 09:31:22;;;;;;;104.88;95.00;;;6.00;99.90;;;;;;5043233;28;20169;-81
2023/11/12 09:33:48;;;;;;;82.38;73.75;;;6.00;99.90;;;;;;5025364;28;20272;-81
2023/11/12 09:36:15;;;;;;;92.72;83.80;;;6.10;99.90;;;;;;5025137;28;20170;-81
2023/11/12 09:38:41;;;;;;;99.72;90.28;;;6.20;99.90;;;;;;5023784;28;20181;-81
2023/11/12 09:41:12;;;;;;;102.70;92.82;;;6.20;99.90;;;;;;5040332;28;20166;-81
2023/11/12 09:43:38;;;;;;;98.75;89.47;;;6.20;99.90;;;;;;5041464;28;20198;-81
2023/11/12 09:46:08;;;;;;;96.90;87.40;;;6.30;99.90;;;;;;5041475;28;20521;-81
2023/11/12 09:48:42;;;;;;;103.50;93.68;;;6.40;99.90;;;;;;5041814;28;20628;-81
2023/11/12 09:51:09;;;;;;;121.95;111.10;;;6.40;99.90;;;;;;5042506;28;20150;-81
2023/11/12 09:53:40;;;;;;;119.60;108.78;;;6.50;99.90;;;;;;5022122;28;20216;-81
2023/11/12 09:56:09;;;;;;;124.18;113.18;;;6.50;99.90;;;;;;5041339;28;20610;-81
2023/11/12 09:58:47;;;;;;;118.35;107.82;;;6.60;99.90;;;;;;5022746;28;20531;-81
2023/11/12 10:01:13;;;;;;;131.15;119.70;;;6.70;99.90;;;;;;5040936;28;20154;-81
2023/11/12 10:03:41;;;;;;;117.27;106.90;;;6.80;99.90;;;;;;5040122;28;20239;-81
2023/11/12 10:06:10;;;;;;;125.68;114.93;;;6.90;99.90;;;;;;5041080;28;20988;-81
2023/11/12 10:08:36;;;;;;;150.38;138.60;;;7.00;99.90;;;;;;5040594;28;20531;-81
2023/11/12 10:11:21;;;;;;;106.78;97.07;;;7.10;99.90;;;;;;5042414;28;20647;-81
2023/11/12 10:13:51;;;;;;;115.55;104.95;;;7.20;99.90;;;;;;5023654;28;20200;-81
2023/11/12 10:16:30;;;;;;;99.55;89.78;;;7.40;99.90;;;;;;5022853;28;20174;-81
2023/11/12 10:19:15;;;;;;;135.38;123.35;;;7.60;99.90;;;;;;5022731;28;20173;-81
2023/11/12 10:21:54;;;;;;;99.60;90.32;;;7.70;99.90;;;;;;5040557;28;20158;-81
2023/11/12 10:24:19;;;;;;;105.63;95.80;;;7.80;99.90;;;;;;5040242;28;20690;-81
2023/11/12 10:26:45;;;;;;;78.80;70.30;;;8.00;99.90;;;;;;5040007;28;20177;-80
2023/11/12 10:29:19;;;;;;;75.77;67.57;;;8.10;99.90;;;;;;5022772;28;20245;-81
2023/11/12 10:31:45;;;;;;;68.90;55.20;;;8.10;99.90;;;;;;5040987;28;20150;-81
2023/11/12 10:34:11;;;;;;;70.73;60.80;;;8.20;99.90;;;;;;5022405;28;20228;-81
2023/11/12 10:36:37;;;;;;;69.68;54.70;;;8.10;99.90;;;;;;5039951;28;20408;-81
2023/11/12 10:39:05;;;;;;;70.47;60.93;;;8.20;99.90;;;;;;5040523;28;20218;-81
2023/11/12 10:41:39;;;;;;;67.10;52.13;;;8.20;99.90;;;;;;5024190;28;20201;-81
2023/11/12 10:44:09;;;;;;;68.25;54.35;;;8.40;99.90;;;;;;5022822;28;20209;-81
2023/11/12 10:46:43;;;;;;;68.88;52.50;;;8.40;99.90;;;;;;5041332;28;20158;-81
2023/11/12 10:49:12;;;;;;;63.53;45.08;;;8.30;99.90;;;;;;5024008;28;20657;-81
2023/11/12 10:51:41;;;;;;;64.30;44.05;;;8.40;99.90;;;;;;5041877;28;20215;-81
2023/11/12 10:54:08;;;;;;;65.88;48.38;;;8.30;99.90;;;;;;5040919;28;20208;-81
2023/11/12 10:56:35;;;;;;;63.05;42.92;;;8.30;99.90;;;;;;5041015;28;20166;-82
2023/11/12 10:59:03;;;;;;;70.88;57.17;;;8.40;99.90;;;;;;5022810;28;20198;-81
2023/11/12 11:01:28;;;;;;;72.10;62.22;;;8.30;99.90;;;;;;5041010;28;20158;-81
2023/11/12 11:03:55;;;;;;;70.30;60.63;;;8.30;99.90;;;;;;5040629;28;20205;-81
2023/11/12 11:06:22;;;;;;;70.05;60.65;;;8.30;99.90;;;;;;5040396;28;20539;-81
2023/11/12 11:08:48;;;;;;;77.78;66.22;;;8.30;99.90;;;;;;5040585;28;20253;-81
2023/11/12 11:11:14;;;;;;;69.87;59.20;;;8.30;99.90;;;;;;5040464;28;20190;-81
2023/11/12 11:13:40;;;;;;;72.60;64.55;;;8.40;99.90;;;;;;5039615;28;20184;-81
2023/11/12 11:16:07;;;;;;;68.93;59.20;;;8.50;99.90;;;;;;5039941;28;20166;-81
2023/11/12 11:18:36;;;;;;;100.97;91.15;;;8.60;99.90;;;;;;5022599;28;20506;-81
2023/11/12 11:21:05;;;;;;;74.70;66.75;;;8.70;99.90;;;;;;5039752;28;20180;-81
2023/11/12 11:23:41;;;;;;;71.47;59.72;;;9.00;99.90;;;;;;5039370;28;20201;-81
2023/11/12 11:26:39;;;;;;;70.35;54.17;;;9.10;99.90;;;;;;5039083;28;20157;-81
2023/11/12 11:29:05;;;;;;;66.30;53.10;;;9.30;99.90;;;;;;5039149;28;20265;-81
2023/11/12 11:31:56;;;;;;;65.10;52.90;;;9.20;99.90;;;;;;5037719;28;20604;-81
2023/11/12 11:34:38;;;;;;;63.63;46.97;;;9.30;99.90;;;;;;4991020;28;20213;-81
2023/11/12 11:37:04;;;;;;;68.93;53.53;;;9.10;99.90;;;;;;5038207;28;20153;-81
2023/11/12 11:39:29;;;;;;;67.00;52.63;;;9.10;99.90;;;;;;5039356;28;20635;-81
2023/11/12 11:41:55;;;;;;;68.00;53.47;;;9.10;99.90;;;;;;5020760;28;20166;-81
2023/11/12 11:44:39;;;;;;;69.30;53.10;;;9.10;99.90;;;;;;5038974;28;20205;-82
2023/11/12 11:47:17;;;;;;;65.57;50.47;;;9.30;99.90;;;;;;5039006;28;20505;-81
2023/11/12 11:49:44;;;;;;;64.68;48.05;;;9.40;99.90;;;;;;5038670;28;20173;-81
2023/11/12 11:52:32;;;;;;;65.80;51.35;;;9.50;99.90;;;;;;5020823;28;20644;-81
2023/11/12 11:55:04;;;;;;;63.63;44.55;;;9.70;99.90;;;;;;5039251;28;20189;-81
2023/11/12 11:57:31;;;;;;;62.35;40.92;;;9.90;99.90;;;;;;5021489;28;20266;-81
2023/11/12 11:59:57;;;;;;;67.00;46.45;;;9.80;99.90;;;;;;5020775;28;20170;-81
2023/11/12 12:02:24;;;;;;;61.22;43.03;;;9.70;99.90;;;;;;5037699;28;20710;-81
2023/11/12 12:04:55;;;;;;;64.25;41.78;;;9.70;99.90;;;;;;5038044;28;20201;-81
2023/11/12 12:07:26;;;;;;;65.00;47.75;;;9.70;99.90;;;;;;5037707;28;20165;-81
2023/11/12 12:09:53;;;;;;;62.05;39.30;;;9.70;99.90;;;;;;5037965;28;20670;-81
2023/11/12 12:12:21;;;;;;;64.95;46.70;;;9.70;99.90;;;;;;5038313;28;20158;-81
2023/11/12 12:15:13;;;;;;;64.28;42.33;;;9.80;99.90;;;;;;5020739;28;20609;-81
2023/11/12 12:17:39;;;;;;;64.28;42.60;;;9.80;99.90;;;;;;5034429;28;20191;-81
2023/11/12 12:20:06;;;;;;;60.95;37.95;;;9.80;99.90;;;;;;5038925;28;20235;-81
2023/11/12 12:22:33;;;;;;;63.80;44.58;;;9.90;99.90;;;;;;5020295;28;20192;-81
2023/11/12 12:24:58;;;;;;;62.33;45.53;;;10.00;99.90;;;;;;5038669;28;20185;-81
2023/11/12 12:27:24;;;;;;;61.77;39.83;;;10.10;99.90;;;;;;5020647;28;20241;-81
2023/11/12 12:29:51;;;;;;;57.77;32.17;;;10.20;99.90;;;;;;5039245;28;20172;-81
2023/11/12 12:32:18;;;;;;;57.95;32.72;;;10.20;99.90;;;;;;5038704;28;20405;-81
2023/11/12 12:34:49;;;;;;;58.60;33.45;;;10.10;99.90;;;;;;5020467;28;20579;-81
2023/11/12 12:37:25;;;;;;;59.53;33.33;;;10.00;99.90;;;;;;5019961;28;20535;-81